sensor_id;sensor_type;location;lat;lon;timestamp;P1;durP1;ratioP1;P2;durP2;ratioP2
11418;SDS011;32800;44.876;13.880;2023-05-07T00:02:10;3.30;;;2.40;;
11418;SDS011;32800;44.876;13.880;2023-05-07T00:04:36;3.17;;;2.87;;
11418;SDS011;32800;44.876;13.880;2023-05-07T00:07:02;4.37;;;3.10;;
11418;SDS011;32800;44.876;13.880;2023-05-07T00:09:28;3.17;;;2.83;;
11418;SDS011;32800;44.876;13.880;2023-05-07T00:11:54;3.47;;;2.80;;
11418;SDS011;32800;44.876;13.880;2023-05-07T00:14:19;4.60;;;3.00;;
11418;SDS011;32800;44.876;13.880;2023-05-07T00:16:46;4.60;;;2.90;;
11418;SDS011;32800;44.876;13.880;2023-05-07T00:19:11;3.77;;;2.97;;
11418;SDS011;32800;44.876;13.880;2023-05-07T00:21:37;3.50;;;2.90;;
11418;SDS011;32800;44.876;13.880;2023-05-07T00:24:02;5.23;;;2.93;;
11418;SDS011;32800;44.876;13.880;2023-05-07T00:26:28;16.80;;;3.53;;
11418;SDS011;32800;44.876;13.880;2023-05-07T00:28:54;2.93;;;2.70;;
11418;SDS011;32800;44.876;13.880;2023-05-07T00:31:19;3.33;;;3.03;;
11418;SDS011;32800;44.876;13.880;2023-05-07T00:33:45;4.47;;;2.93;;
11418;SDS011;32800;44.876;13.880;2023-05-07T00:36:10;3.20;;;2.90;;
11418;SDS011;32800;44.876;13.880;2023-05-07T00:38:36;3.10;;;2.80;;
11418;SDS011;32800;44.876;13.880;2023-05-07T00:41:01;3.10;;;2.80;;
11418;SDS011;32800;44.876;13.880;2023-05-07T00:43:27;6.23;;;2.90;;
11418;SDS011;32800;44.876;13.880;2023-05-07T00:45:53;3.20;;;2.93;;
11418;SDS011;32800;44.876;13.880;2023-05-07T00:48:19;2.80;;;2.60;;
11418;SDS011;32800;44.876;13.880;2023-05-07T00:50:45;3.77;;;2.83;;
11418;SDS011;32800;44.876;13.880;2023-05-07T00:53:12;3.37;;;3.03;;
11418;SDS011;32800;44.876;13.880;2023-05-07T00:55:38;4.13;;;2.80;;
11418;SDS011;32800;44.876;13.880;2023-05-07T00:58:04;3.00;;;2.70;;
11418;SDS011;32800;44.876;13.880;2023-05-07T01:00:29;3.20;;;2.80;;
11418;SDS011;32800;44.876;13.880;2023-05-07T01:02:55;2.90;;;2.70;;
11418;SDS011;32800;44.876;13.880;2023-05-07T01:05:20;4.60;;;2.67;;
11418;SDS011;32800;44.876;13.880;2023-05-07T01:07:47;3.13;;;2.90;;
11418;SDS011;32800;44.876;13.880;2023-05-07T01:10:13;4.50;;;3.07;;
11418;SDS011;32800;44.876;13.880;2023-05-07T01:12:39;4.17;;;2.90;;
11418;SDS011;32800;44.876;13.880;2023-05-07T01:15:05;4.73;;;3.10;;
11418;SDS011;32800;44.876;13.880;2023-05-07T01:17:33;2.90;;;2.63;;
11418;SDS011;32800;44.876;13.880;2023-05-07T01:19:59;4.03;;;2.87;;
11418;SDS011;32800;44.876;13.880;2023-05-07T01:22:29;3.20;;;2.90;;
11418;SDS011;32800;44.876;13.880;2023-05-07T01:24:57;3.80;;;2.53;;
11418;SDS011;32800;44.876;13.880;2023-05-07T01:27:24;4.70;;;2.97;;
11418;SDS011;32800;44.876;13.880;2023-05-07T01:29:50;3.23;;;2.83;;
11418;SDS011;32800;44.876;13.880;2023-05-07T01:32:16;3.10;;;2.80;;
11418;SDS011;32800;44.876;13.880;2023-05-07T01:34:44;3.10;;;2.80;;
11418;SDS011;32800;44.876;13.880;2023-05-07T01:37:10;3.33;;;2.73;;
11418;SDS011;32800;44.876;13.880;2023-05-07T01:39:35;4.23;;;2.70;;
11418;SDS011;32800;44.876;13.880;2023-05-07T01:42:02;4.47;;;2.70;;
11418;SDS011;32800;44.876;13.880;2023-05-07T01:44:28;3.13;;;2.83;;
11418;SDS011;32800;44.876;13.880;2023-05-07T01:46:54;3.80;;;2.50;;
11418;SDS011;32800;44.876;13.880;2023-05-07T01:49:20;3.57;;;2.70;;
11418;SDS011;32800;44.876;13.880;2023-05-07T01:51:45;3.40;;;2.77;;
11418;SDS011;32800;44.876;13.880;2023-05-07T01:54:11;2.73;;;2.53;;
11418;SDS011;32800;44.876;13.880;2023-05-07T01:56:37;3.10;;;2.90;;
11418;SDS011;32800;44.876;13.880;2023-05-07T01:59:02;2.87;;;2.57;;
11418;SDS011;32800;44.876;13.880;2023-05-07T02:01:28;3.63;;;2.80;;
11418;SDS011;32800;44.876;13.880;2023-05-07T02:03:53;2.57;;;2.37;;
11418;SDS011;32800;44.876;13.880;2023-05-07T02:06:19;3.30;;;2.97;;
11418;SDS011;32800;44.876;13.880;2023-05-07T02:08:45;3.33;;;2.77;;
11418;SDS011;32800;44.876;13.880;2023-05-07T02:11:11;3.10;;;2.80;;
11418;SDS011;32800;44.876;13.880;2023-05-07T02:13:36;2.93;;;2.60;;
11418;SDS011;32800;44.876;13.880;2023-05-07T02:16:02;4.13;;;2.80;;
11418;SDS011;32800;44.876;13.880;2023-05-07T02:18:28;3.93;;;2.83;;
11418;SDS011;32800;44.876;13.880;2023-05-07T02:20:54;2.80;;;2.60;;
11418;SDS011;32800;44.876;13.880;2023-05-07T02:23:19;4.63;;;2.50;;
11418;SDS011;32800;44.876;13.880;2023-05-07T02:25:45;2.63;;;2.43;;
11418;SDS011;32800;44.876;13.880;2023-05-07T02:28:11;2.63;;;2.43;;
11418;SDS011;32800;44.876;13.880;2023-05-07T02:30:36;2.73;;;2.53;;
11418;SDS011;32800;44.876;13.880;2023-05-07T02:33:02;2.87;;;2.67;;
11418;SDS011;32800;44.876;13.880;2023-05-07T02:35:28;2.70;;;2.50;;
11418;SDS011;32800;44.876;13.880;2023-05-07T02:37:53;2.80;;;2.60;;
11418;SDS011;32800;44.876;13.880;2023-05-07T02:40:19;2.90;;;2.60;;
11418;SDS011;32800;44.876;13.880;2023-05-07T02:42:44;2.63;;;2.43;;
11418;SDS011;32800;44.876;13.880;2023-05-07T02:45:10;2.53;;;2.33;;
11418;SDS011;32800;44.876;13.880;2023-05-07T02:47:36;3.30;;;2.40;;
11418;SDS011;32800;44.876;13.880;2023-05-07T02:50:01;2.80;;;2.60;;
11418;SDS011;32800;44.876;13.880;2023-05-07T02:52:27;2.73;;;2.53;;
11418;SDS011;32800;44.876;13.880;2023-05-07T02:54:53;3.00;;;2.80;;
11418;SDS011;32800;44.876;13.880;2023-05-07T02:57:18;3.27;;;2.67;;
11418;SDS011;32800;44.876;13.880;2023-05-07T02:59:44;2.50;;;2.30;;
11418;SDS011;32800;44.876;13.880;2023-05-07T03:02:09;3.33;;;2.53;;
11418;SDS011;32800;44.876;13.880;2023-05-07T03:04:35;2.77;;;2.57;;
11418;SDS011;32800;44.876;13.880;2023-05-07T03:07:01;2.67;;;2.47;;
11418;SDS011;32800;44.876;13.880;2023-05-07T03:09:26;3.47;;;2.70;;
11418;SDS011;32800;44.876;13.880;2023-05-07T03:11:52;2.63;;;2.43;;
11418;SDS011;32800;44.876;13.880;2023-05-07T03:14:17;2.70;;;2.50;;
11418;SDS011;32800;44.876;13.880;2023-05-07T03:16:43;3.97;;;2.43;;
11418;SDS011;32800;44.876;13.880;2023-05-07T03:19:08;2.47;;;2.30;;
11418;SDS011;32800;44.876;13.880;2023-05-07T03:21:34;2.53;;;2.27;;
11418;SDS011;32800;44.876;13.880;2023-05-07T03:23:59;4.27;;;2.33;;
11418;SDS011;32800;44.876;13.880;2023-05-07T03:26:25;2.50;;;2.30;;
11418;SDS011;32800;44.876;13.880;2023-05-07T03:28:51;2.40;;;2.20;;
11418;SDS011;32800;44.876;13.880;2023-05-07T03:31:17;2.80;;;2.40;;
11418;SDS011;32800;44.876;13.880;2023-05-07T03:33:52;2.37;;;2.17;;
11418;SDS011;32800;44.876;13.880;2023-05-07T03:36:19;2.40;;;2.20;;
11418;SDS011;32800;44.876;13.880;2023-05-07T03:38:46;2.53;;;2.33;;
11418;SDS011;32800;44.876;13.880;2023-05-07T03:41:11;2.93;;;2.23;;
11418;SDS011;32800;44.876;13.880;2023-05-07T03:43:37;2.63;;;2.43;;
11418;SDS011;32800;44.876;13.880;2023-05-07T03:46:03;2.63;;;2.43;;
11418;SDS011;32800;44.876;13.880;2023-05-07T03:48:28;3.30;;;2.30;;
11418;SDS011;32800;44.876;13.880;2023-05-07T03:50:54;2.57;;;2.37;;
11418;SDS011;32800;44.876;13.880;2023-05-07T03:53:19;2.43;;;2.20;;
11418;SDS011;32800;44.876;13.880;2023-05-07T03:55:45;2.37;;;2.17;;
11418;SDS011;32800;44.876;13.880;2023-05-07T03:58:10;2.50;;;2.30;;
11418;SDS011;32800;44.876;13.880;2023-05-07T04:00:36;2.60;;;2.40;;
11418;SDS011;32800;44.876;13.880;2023-05-07T04:03:04;2.87;;;2.43;;
11418;SDS011;32800;44.876;13.880;2023-05-07T04:05:30;2.37;;;2.17;;
11418;SDS011;32800;44.876;13.880;2023-05-07T04:07:57;2.57;;;2.33;;
11418;SDS011;32800;44.876;13.880;2023-05-07T04:10:23;3.90;;;2.40;;
11418;SDS011;32800;44.876;13.880;2023-05-07T04:12:48;2.60;;;2.30;;
11418;SDS011;32800;44.876;13.880;2023-05-07T04:15:14;2.40;;;2.20;;
11418;SDS011;32800;44.876;13.880;2023-05-07T04:17:39;2.40;;;2.20;;
11418;SDS011;32800;44.876;13.880;2023-05-07T04:20:08;2.93;;;2.40;;
11418;SDS011;32800;44.876;13.880;2023-05-07T04:22:34;2.13;;;2.03;;
11418;SDS011;32800;44.876;13.880;2023-05-07T04:24:59;2.47;;;2.27;;
11418;SDS011;32800;44.876;13.880;2023-05-07T04:27:25;2.50;;;2.30;;
11418;SDS011;32800;44.876;13.880;2023-05-07T04:29:51;2.43;;;2.10;;
11418;SDS011;32800;44.876;13.880;2023-05-07T04:32:20;2.40;;;2.20;;
11418;SDS011;32800;44.876;13.880;2023-05-07T04:34:46;2.17;;;1.97;;
11418;SDS011;32800;44.876;13.880;2023-05-07T04:37:12;3.17;;;2.20;;
11418;SDS011;32800;44.876;13.880;2023-05-07T04:39:37;2.40;;;2.20;;
11418;SDS011;32800;44.876;13.880;2023-05-07T04:42:03;2.40;;;2.20;;
11418;SDS011;32800;44.876;13.880;2023-05-07T04:44:28;4.53;;;2.33;;
11418;SDS011;32800;44.876;13.880;2023-05-07T04:46:56;2.03;;;1.93;;
11418;SDS011;32800;44.876;13.880;2023-05-07T04:49:21;2.10;;;1.90;;
11418;SDS011;32800;44.876;13.880;2023-05-07T04:51:47;2.50;;;2.30;;
11418;SDS011;32800;44.876;13.880;2023-05-07T04:54:13;2.60;;;2.40;;
11418;SDS011;32800;44.876;13.880;2023-05-07T04:56:38;2.77;;;2.57;;
11418;SDS011;32800;44.876;13.880;2023-05-07T04:59:04;2.30;;;2.10;;
11418;SDS011;32800;44.876;13.880;2023-05-07T05:01:29;2.57;;;2.37;;
11418;SDS011;32800;44.876;13.880;2023-05-07T05:03:55;2.53;;;2.33;;
11418;SDS011;32800;44.876;13.880;2023-05-07T05:06:20;2.40;;;2.20;;
11418;SDS011;32800;44.876;13.880;2023-05-07T05:08:46;2.50;;;2.30;;
11418;SDS011;32800;44.876;13.880;2023-05-07T05:11:11;1.97;;;1.87;;
11418;SDS011;32800;44.876;13.880;2023-05-07T05:13:37;2.97;;;2.00;;
11418;SDS011;32800;44.876;13.880;2023-05-07T05:16:02;2.17;;;2.07;;
11418;SDS011;32800;44.876;13.880;2023-05-07T05:18:28;2.00;;;1.90;;
11418;SDS011;32800;44.876;13.880;2023-05-07T05:20:53;2.23;;;2.10;;
11418;SDS011;32800;44.876;13.880;2023-05-07T05:23:19;2.10;;;2.00;;
11418;SDS011;32800;44.876;13.880;2023-05-07T05:25:45;2.00;;;1.80;;
11418;SDS011;32800;44.876;13.880;2023-05-07T05:28:10;2.40;;;2.20;;
11418;SDS011;32800;44.876;13.880;2023-05-07T05:30:36;2.27;;;2.03;;
11418;SDS011;32800;44.876;13.880;2023-05-07T05:33:01;2.17;;;2.07;;
11418;SDS011;32800;44.876;13.880;2023-05-07T05:35:27;2.00;;;1.90;;
11418;SDS011;32800;44.876;13.880;2023-05-07T05:37:52;1.90;;;1.80;;
11418;SDS011;32800;44.876;13.880;2023-05-07T05:40:18;3.03;;;2.20;;
11418;SDS011;32800;44.876;13.880;2023-05-07T05:42:44;2.20;;;2.10;;
11418;SDS011;32800;44.876;13.880;2023-05-07T05:45:09;2.17;;;2.00;;
11418;SDS011;32800;44.876;13.880;2023-05-07T05:47:35;2.90;;;2.00;;
11418;SDS011;32800;44.876;13.880;2023-05-07T05:50:00;2.60;;;2.00;;
11418;SDS011;32800;44.876;13.880;2023-05-07T05:52:26;2.00;;;1.87;;
11418;SDS011;32800;44.876;13.880;2023-05-07T05:54:52;2.43;;;2.23;;
11418;SDS011;32800;44.876;13.880;2023-05-07T05:57:18;1.93;;;1.80;;
11418;SDS011;32800;44.876;13.880;2023-05-07T05:59:44;2.07;;;1.97;;
11418;SDS011;32800;44.876;13.880;2023-05-07T06:02:09;2.50;;;2.30;;
11418;SDS011;32800;44.876;13.880;2023-05-07T06:04:35;2.50;;;2.10;;
11418;SDS011;32800;44.876;13.880;2023-05-07T06:07:01;2.20;;;2.00;;
11418;SDS011;32800;44.876;13.880;2023-05-07T06:09:26;2.80;;;1.90;;
11418;SDS011;32800;44.876;13.880;2023-05-07T06:11:52;2.33;;;2.13;;
11418;SDS011;32800;44.876;13.880;2023-05-07T06:14:17;2.17;;;1.97;;
11418;SDS011;32800;44.876;13.880;2023-05-07T06:16:43;6.10;;;2.10;;
11418;SDS011;32800;44.876;13.880;2023-05-07T06:19:09;2.20;;;2.00;;
11418;SDS011;32800;44.876;13.880;2023-05-07T06:21:34;1.97;;;1.67;;
11418;SDS011;32800;44.876;13.880;2023-05-07T06:24:00;2.23;;;2.10;;
11418;SDS011;32800;44.876;13.880;2023-05-07T06:26:25;2.43;;;2.20;;
11418;SDS011;32800;44.876;13.880;2023-05-07T06:28:51;2.30;;;2.10;;
11418;SDS011;32800;44.876;13.880;2023-05-07T06:31:20;2.17;;;1.97;;
11418;SDS011;32800;44.876;13.880;2023-05-07T06:33:45;2.30;;;2.10;;
11418;SDS011;32800;44.876;13.880;2023-05-07T06:36:11;2.30;;;2.10;;
11418;SDS011;32800;44.876;13.880;2023-05-07T06:38:36;3.50;;;2.10;;
11418;SDS011;32800;44.876;13.880;2023-05-07T06:41:02;2.00;;;1.90;;
11418;SDS011;32800;44.876;13.880;2023-05-07T06:43:27;2.03;;;1.93;;
11418;SDS011;32800;44.876;13.880;2023-05-07T06:45:53;2.20;;;2.00;;
11418;SDS011;32800;44.876;13.880;2023-05-07T06:48:18;2.10;;;2.00;;
11418;SDS011;32800;44.876;13.880;2023-05-07T06:50:44;2.93;;;1.83;;
11418;SDS011;32800;44.876;13.880;2023-05-07T06:53:10;2.43;;;2.23;;
11418;SDS011;32800;44.876;13.880;2023-05-07T06:55:36;2.17;;;2.00;;
11418;SDS011;32800;44.876;13.880;2023-05-07T06:58:03;2.17;;;1.97;;
11418;SDS011;32800;44.876;13.880;2023-05-07T07:00:29;2.20;;;2.00;;
11418;SDS011;32800;44.876;13.880;2023-05-07T07:02:54;2.17;;;2.00;;
11418;SDS011;32800;44.876;13.880;2023-05-07T07:05:20;2.20;;;2.10;;
11418;SDS011;32800;44.876;13.880;2023-05-07T07:07:46;2.00;;;1.90;;
11418;SDS011;32800;44.876;13.880;2023-05-07T07:10:20;2.23;;;2.00;;
11418;SDS011;32800;44.876;13.880;2023-05-07T07:12:46;2.00;;;1.90;;
11418;SDS011;32800;44.876;13.880;2023-05-07T07:15:13;1.87;;;1.77;;
11418;SDS011;32800;44.876;13.880;2023-05-07T07:17:38;2.00;;;1.80;;
11418;SDS011;32800;44.876;13.880;2023-05-07T07:20:04;2.07;;;1.97;;
11418;SDS011;32800;44.876;13.880;2023-05-07T07:22:30;5.77;;;2.67;;
11418;SDS011;32800;44.876;13.880;2023-05-07T07:24:56;1.93;;;1.83;;
11418;SDS011;32800;44.876;13.880;2023-05-07T07:27:21;2.30;;;2.10;;
11418;SDS011;32800;44.876;13.880;2023-05-07T07:29:47;1.97;;;1.77;;
11418;SDS011;32800;44.876;13.880;2023-05-07T07:32:12;1.70;;;1.60;;
11418;SDS011;32800;44.876;13.880;2023-05-07T07:34:38;2.10;;;1.90;;
11418;SDS011;32800;44.876;13.880;2023-05-07T07:37:03;1.90;;;1.80;;
11418;SDS011;32800;44.876;13.880;2023-05-07T07:39:31;2.50;;;2.17;;
11418;SDS011;32800;44.876;13.880;2023-05-07T07:41:57;2.93;;;2.03;;
11418;SDS011;32800;44.876;13.880;2023-05-07T07:44:23;2.10;;;1.90;;
11418;SDS011;32800;44.876;13.880;2023-05-07T07:46:48;3.13;;;2.00;;
11418;SDS011;32800;44.876;13.880;2023-05-07T07:49:14;1.90;;;1.80;;
11418;SDS011;32800;44.876;13.880;2023-05-07T07:51:40;20.67;;;2.47;;
11418;SDS011;32800;44.876;13.880;2023-05-07T07:54:05;1.90;;;1.80;;
11418;SDS011;32800;44.876;13.880;2023-05-07T07:56:34;2.07;;;1.97;;
11418;SDS011;32800;44.876;13.880;2023-05-07T07:59:00;3.13;;;2.23;;
11418;SDS011;32800;44.876;13.880;2023-05-07T08:01:26;2.33;;;1.70;;
11418;SDS011;32800;44.876;13.880;2023-05-07T08:03:52;2.93;;;2.03;;
11418;SDS011;32800;44.876;13.880;2023-05-07T08:06:17;2.83;;;1.73;;
11418;SDS011;32800;44.876;13.880;2023-05-07T08:08:43;2.00;;;1.90;;
11418;SDS011;32800;44.876;13.880;2023-05-07T08:11:09;2.10;;;1.83;;
11418;SDS011;32800;44.876;13.880;2023-05-07T08:13:35;2.00;;;1.90;;
11418;SDS011;32800;44.876;13.880;2023-05-07T08:16:01;2.10;;;1.90;;
11418;SDS011;32800;44.876;13.880;2023-05-07T08:18:27;2.00;;;1.90;;
11418;SDS011;32800;44.876;13.880;2023-05-07T08:20:54;1.90;;;1.80;;
11418;SDS011;32800;44.876;13.880;2023-05-07T08:23:20;1.87;;;1.77;;
11418;SDS011;32800;44.876;13.880;2023-05-07T08:25:46;2.33;;;2.00;;
11418;SDS011;32800;44.876;13.880;2023-05-07T08:28:11;3.83;;;2.20;;
11418;SDS011;32800;44.876;13.880;2023-05-07T08:30:37;2.00;;;1.80;;
11418;SDS011;32800;44.876;13.880;2023-05-07T08:33:02;2.00;;;1.90;;
11418;SDS011;32800;44.876;13.880;2023-05-07T08:35:28;4.33;;;1.93;;
11418;SDS011;32800;44.876;13.880;2023-05-07T08:37:53;2.03;;;1.87;;
11418;SDS011;32800;44.876;13.880;2023-05-07T08:40:20;5.27;;;2.10;;
11418;SDS011;32800;44.876;13.880;2023-05-07T08:42:50;4.00;;;2.20;;
11418;SDS011;32800;44.876;13.880;2023-05-07T08:45:17;3.63;;;2.40;;
11418;SDS011;32800;44.876;13.880;2023-05-07T08:47:45;3.83;;;2.60;;
11418;SDS011;32800;44.876;13.880;2023-05-07T08:50:12;3.00;;;2.80;;
11418;SDS011;32800;44.876;13.880;2023-05-07T08:52:39;3.53;;;3.23;;
11418;SDS011;32800;44.876;13.880;2023-05-07T08:55:05;3.13;;;2.93;;
11418;SDS011;32800;44.876;13.880;2023-05-07T08:57:32;3.13;;;2.83;;
11418;SDS011;32800;44.876;13.880;2023-05-07T08:59:57;3.70;;;3.17;;
11418;SDS011;32800;44.876;13.880;2023-05-07T09:02:23;3.70;;;3.40;;
11418;SDS011;32800;44.876;13.880;2023-05-07T09:04:48;3.57;;;3.27;;
11418;SDS011;32800;44.876;13.880;2023-05-07T09:07:14;3.97;;;3.40;;
11418;SDS011;32800;44.876;13.880;2023-05-07T09:09:40;3.90;;;3.40;;
11418;SDS011;32800;44.876;13.880;2023-05-07T09:12:05;3.83;;;3.20;;
11418;SDS011;32800;44.876;13.880;2023-05-07T09:14:31;4.47;;;3.67;;
11418;SDS011;32800;44.876;13.880;2023-05-07T09:16:56;3.60;;;3.30;;
11418;SDS011;32800;44.876;13.880;2023-05-07T09:19:24;3.87;;;3.40;;
11418;SDS011;32800;44.876;13.880;2023-05-07T09:22:03;3.80;;;3.50;;
11418;SDS011;32800;44.876;13.880;2023-05-07T09:24:30;4.20;;;3.80;;
11418;SDS011;32800;44.876;13.880;2023-05-07T09:27:00;4.33;;;3.67;;
11418;SDS011;32800;44.876;13.880;2023-05-07T09:29:27;5.23;;;4.03;;
11418;SDS011;32800;44.876;13.880;2023-05-07T09:32:00;4.00;;;3.37;;
11418;SDS011;32800;44.876;13.880;2023-05-07T09:34:27;3.90;;;3.60;;
11418;SDS011;32800;44.876;13.880;2023-05-07T09:36:53;3.80;;;3.50;;
11418;SDS011;32800;44.876;13.880;2023-05-07T09:39:19;4.43;;;4.03;;
11418;SDS011;32800;44.876;13.880;2023-05-07T09:41:45;4.40;;;3.90;;
11418;SDS011;32800;44.876;13.880;2023-05-07T09:44:11;5.67;;;4.13;;
11418;SDS011;32800;44.876;13.880;2023-05-07T09:46:38;4.17;;;3.80;;
11418;SDS011;32800;44.876;13.880;2023-05-07T09:49:04;3.90;;;3.60;;
11418;SDS011;32800;44.876;13.880;2023-05-07T09:51:38;4.55;;;3.80;;
11418;SDS011;32800;44.876;13.880;2023-05-07T09:54:07;4.97;;;3.28;;
11418;SDS011;32800;44.876;13.880;2023-05-07T09:56:32;3.70;;;3.13;;
11418;SDS011;32800;44.876;13.880;2023-05-07T09:59:01;4.20;;;3.70;;
11418;SDS011;32800;44.876;13.880;2023-05-07T10:01:29;3.55;;;3.25;;
11418;SDS011;32800;44.876;13.880;2023-05-07T10:03:56;3.58;;;3.22;;
11418;SDS011;32800;44.876;13.880;2023-05-07T10:06:23;4.07;;;3.22;;
11418;SDS011;32800;44.876;13.880;2023-05-07T10:08:50;6.30;;;3.30;;
11418;SDS011;32800;44.876;13.880;2023-05-07T10:11:17;5.05;;;3.25;;
11418;SDS011;32800;44.876;13.880;2023-05-07T10:13:43;3.35;;;3.10;;
11418;SDS011;32800;44.876;13.880;2023-05-07T10:16:08;4.35;;;3.03;;
11418;SDS011;32800;44.876;13.880;2023-05-07T10:18:34;3.70;;;3.15;;
11418;SDS011;32800;44.876;13.880;2023-05-07T10:21:21;7.50;;;3.60;;
11418;SDS011;32800;44.876;13.880;2023-05-07T10:23:50;4.05;;;3.65;;
11418;SDS011;32800;44.876;13.880;2023-05-07T10:26:20;3.50;;;3.03;;
11418;SDS011;32800;44.876;13.880;2023-05-07T10:28:48;3.33;;;3.03;;
11418;SDS011;32800;44.876;13.880;2023-05-07T10:34:14;4.35;;;3.53;;
11418;SDS011;32800;44.876;13.880;2023-05-07T10:36:42;3.47;;;3.28;;
11418;SDS011;32800;44.876;13.880;2023-05-07T10:39:08;3.78;;;3.47;;
11418;SDS011;32800;44.876;13.880;2023-05-07T10:41:34;3.58;;;3.28;;
11418;SDS011;32800;44.876;13.880;2023-05-07T10:44:00;3.80;;;3.50;;
11418;SDS011;32800;44.876;13.880;2023-05-07T10:46:27;4.10;;;3.80;;
11418;SDS011;32800;44.876;13.880;2023-05-07T10:51:33;4.63;;;3.70;;
11418;SDS011;32800;44.876;13.880;2023-05-07T10:56:34;5.47;;;4.13;;
11418;SDS011;32800;44.876;13.880;2023-05-07T11:04:18;3.80;;;3.50;;
11418;SDS011;32800;44.876;13.880;2023-05-07T11:12:45;3.40;;;3.10;;
11418;SDS011;32800;44.876;13.880;2023-05-07T11:15:09;3.45;;;3.15;;
11418;SDS011;32800;44.876;13.880;2023-05-07T11:20:20;3.88;;;3.53;;
11418;SDS011;32800;44.876;13.880;2023-05-07T11:22:46;3.40;;;3.10;;
11418;SDS011;32800;44.876;13.880;2023-05-07T11:25:19;3.70;;;2.88;;
11418;SDS011;32800;44.876;13.880;2023-05-07T11:27:44;3.92;;;3.47;;
11418;SDS011;32800;44.876;13.880;2023-05-07T11:30:11;3.58;;;3.28;;
11418;SDS011;32800;44.876;13.880;2023-05-07T11:32:42;3.60;;;3.30;;
11418;SDS011;32800;44.876;13.880;2023-05-07T11:35:08;3.25;;;2.97;;
11418;SDS011;32800;44.876;13.880;2023-05-07T11:37:34;3.95;;;3.40;;
11418;SDS011;32800;44.876;13.880;2023-05-07T11:40:03;3.17;;;2.97;;
11418;SDS011;32800;44.876;13.880;2023-05-07T11:42:37;3.63;;;2.90;;
11418;SDS011;32800;44.876;13.880;2023-05-07T11:45:04;3.70;;;3.40;;
11418;SDS011;32800;44.876;13.880;2023-05-07T11:47:31;3.40;;;3.10;;
11418;SDS011;32800;44.876;13.880;2023-05-07T11:49:57;3.20;;;3.00;;
11418;SDS011;32800;44.876;13.880;2023-05-07T11:52:28;3.40;;;3.10;;
11418;SDS011;32800;44.876;13.880;2023-05-07T11:54:56;3.20;;;2.90;;
11418;SDS011;32800;44.876;13.880;2023-05-07T11:57:23;2.92;;;2.72;;
11418;SDS011;32800;44.876;13.880;2023-05-07T11:59:53;2.70;;;2.50;;
11418;SDS011;32800;44.876;13.880;2023-05-07T12:02:24;2.90;;;2.70;;
11418;SDS011;32800;44.876;13.880;2023-05-07T12:04:50;2.63;;;2.42;;
11418;SDS011;32800;44.876;13.880;2023-05-07T12:07:16;3.25;;;2.63;;
11418;SDS011;32800;44.876;13.880;2023-05-07T12:09:43;3.03;;;2.70;;
11418;SDS011;32800;44.876;13.880;2023-05-07T12:12:10;2.83;;;2.40;;
11418;SDS011;32800;44.876;13.880;2023-05-07T12:14:42;2.95;;;2.63;;
11418;SDS011;32800;44.876;13.880;2023-05-07T12:17:09;2.75;;;2.55;;
11418;SDS011;32800;44.876;13.880;2023-05-07T12:19:35;2.40;;;2.20;;
11418;SDS011;32800;44.876;13.880;2023-05-07T12:22:05;2.65;;;2.42;;
11418;SDS011;32800;44.876;13.880;2023-05-07T12:25:16;3.42;;;2.70;;
11418;SDS011;32800;44.876;13.880;2023-05-07T12:27:22;2.30;;;2.20;;
11418;SDS011;32800;44.876;13.880;2023-05-07T12:29:49;2.70;;;2.50;;
11418;SDS011;32800;44.876;13.880;2023-05-07T12:32:18;3.03;;;2.63;;
11418;SDS011;32800;44.876;13.880;2023-05-07T12:34:45;2.92;;;2.30;;
11418;SDS011;32800;44.876;13.880;2023-05-07T12:37:11;2.90;;;2.63;;
11418;SDS011;32800;44.876;13.880;2023-05-07T12:39:49;4.07;;;2.50;;
11418;SDS011;32800;44.876;13.880;2023-05-07T12:42:32;2.72;;;2.53;;
11418;SDS011;32800;44.876;13.880;2023-05-07T12:44:58;2.67;;;2.17;;
11418;SDS011;32800;44.876;13.880;2023-05-07T12:47:23;5.38;;;2.47;;
11418;SDS011;32800;44.876;13.880;2023-05-07T12:49:49;2.60;;;2.40;;
11418;SDS011;32800;44.876;13.880;2023-05-07T12:52:15;3.05;;;2.42;;
11418;SDS011;32800;44.876;13.880;2023-05-07T12:54:40;3.78;;;2.70;;
11418;SDS011;32800;44.876;13.880;2023-05-07T12:57:07;2.78;;;2.58;;
11418;SDS011;32800;44.876;13.880;2023-05-07T12:59:37;2.53;;;2.33;;
11418;SDS011;32800;44.876;13.880;2023-05-07T13:02:05;2.63;;;2.28;;
11418;SDS011;32800;44.876;13.880;2023-05-07T13:04:30;2.75;;;2.50;;
11418;SDS011;32800;44.876;13.880;2023-05-07T13:06:56;2.97;;;2.28;;
11418;SDS011;32800;44.876;13.880;2023-05-07T13:09:22;2.83;;;2.47;;
11418;SDS011;32800;44.876;13.880;2023-05-07T13:11:47;2.35;;;2.25;;
11418;SDS011;32800;44.876;13.880;2023-05-07T13:14:13;2.50;;;2.30;;
11418;SDS011;32800;44.876;13.880;2023-05-07T13:16:38;2.78;;;2.40;;
11418;SDS011;32800;44.876;13.880;2023-05-07T13:19:04;2.65;;;2.38;;
11418;SDS011;32800;44.876;13.880;2023-05-07T13:21:30;3.50;;;2.55;;
11418;SDS011;32800;44.876;13.880;2023-05-07T13:23:58;2.75;;;2.50;;
11418;SDS011;32800;44.876;13.880;2023-05-07T13:26:24;2.60;;;2.40;;
11418;SDS011;32800;44.876;13.880;2023-05-07T13:28:50;3.05;;;2.50;;
11418;SDS011;32800;44.876;13.880;2023-05-07T13:31:16;2.90;;;2.70;;
11418;SDS011;32800;44.876;13.880;2023-05-07T13:33:42;3.15;;;2.47;;
11418;SDS011;32800;44.876;13.880;2023-05-07T13:36:08;2.42;;;2.22;;
11418;SDS011;32800;44.876;13.880;2023-05-07T13:38:34;4.32;;;2.40;;
11418;SDS011;32800;44.876;13.880;2023-05-07T13:41:00;2.60;;;2.40;;
11418;SDS011;32800;44.876;13.880;2023-05-07T13:43:25;2.80;;;2.30;;
11418;SDS011;32800;44.876;13.880;2023-05-07T13:45:51;2.58;;;2.15;;
11418;SDS011;32800;44.876;13.880;2023-05-07T13:48:17;4.70;;;2.25;;
11418;SDS011;32800;44.876;13.880;2023-05-07T13:50:42;3.08;;;2.78;;
11418;SDS011;32800;44.876;13.880;2023-05-07T13:53:08;3.42;;;2.60;;
11418;SDS011;32800;44.876;13.880;2023-05-07T13:55:33;4.15;;;2.40;;
11418;SDS011;32800;44.876;13.880;2023-05-07T13:58:00;2.85;;;2.25;;
11418;SDS011;32800;44.876;13.880;2023-05-07T14:00:26;4.25;;;2.60;;
11418;SDS011;32800;44.876;13.880;2023-05-07T14:02:53;2.70;;;2.42;;
11418;SDS011;32800;44.876;13.880;2023-05-07T14:05:19;3.00;;;2.40;;
11418;SDS011;32800;44.876;13.880;2023-05-07T14:07:44;3.05;;;2.28;;
11418;SDS011;32800;44.876;13.880;2023-05-07T14:10:10;3.15;;;2.20;;
11418;SDS011;32800;44.876;13.880;2023-05-07T14:12:36;2.95;;;2.40;;
11418;SDS011;32800;44.876;13.880;2023-05-07T14:15:02;2.88;;;2.67;;
11418;SDS011;32800;44.876;13.880;2023-05-07T14:17:28;2.80;;;2.42;;
11418;SDS011;32800;44.876;13.880;2023-05-07T14:19:53;2.40;;;2.20;;
11418;SDS011;32800;44.876;13.880;2023-05-07T14:22:20;2.67;;;2.13;;
11418;SDS011;32800;44.876;13.880;2023-05-07T14:24:49;3.65;;;2.50;;
11418;SDS011;32800;44.876;13.880;2023-05-07T14:27:15;2.53;;;2.33;;
11418;SDS011;32800;44.876;13.880;2023-05-07T14:29:41;2.72;;;2.50;;
11418;SDS011;32800;44.876;13.880;2023-05-07T14:32:07;2.53;;;2.30;;
11418;SDS011;32800;44.876;13.880;2023-05-07T14:34:33;2.60;;;2.40;;
11418;SDS011;32800;44.876;13.880;2023-05-07T14:36:59;3.97;;;2.15;;
11418;SDS011;32800;44.876;13.880;2023-05-07T14:39:24;3.20;;;2.90;;
11418;SDS011;32800;44.876;13.880;2023-05-07T14:41:51;2.53;;;2.33;;
11418;SDS011;32800;44.876;13.880;2023-05-07T14:44:16;2.80;;;2.53;;
11418;SDS011;32800;44.876;13.880;2023-05-07T14:46:42;4.63;;;2.40;;
11418;SDS011;32800;44.876;13.880;2023-05-07T14:49:07;2.97;;;2.45;;
11418;SDS011;32800;44.876;13.880;2023-05-07T14:51:41;2.88;;;2.67;;